PWSweather.com
Personal Weather Stations
Station Observations
KVARICHM91
Near West End, Richmond, VA 23221

Near West EndRichmond, VA 23221

Lat: 37.567, Lon: -77.496

Elevation: 0

Station Type: Davis Vantage Pro2

Latest ConditionsUpdated 2:52:57 AM EDT Sunday, Jul 23, 2017
Currently Today's Max Today's Min Today's Average
Temperature 77.4°F25.2°C 86.0°F30.0°C 77.4°F25.2°C 81.5°F27.5°C
Dew Point 72.5°F22.5°C 75.0°F23.9°C 71.8°F22.1°C 73.1°F22.8°C
Winds 1.8 mph W2.9 kmh W 4.9 mph WSW7.9 kmh WSW - 1.8 mph 2.9 kmh
Wind Gusts 4.3 mph6.9 kmh 11.6 mph18.7 kmh - -
Humidity 85% 85% 69% 76%
Pressure 29.80 in1009.1 mb 29.84 in1010.5 mb 29.80 in1009.1 mb -
Hour Temp Dew Point Humidity Winds Wind Gusts Pressure Precip Precip Rate Daily Precip Total
02:52 AM 77.4°F25.2°C 72.5°F22.5°C 85% 1.8 mph W2.9 kmh W 4.3 mph6.9 kmh 29.80 in1009.1 mb 0.00 in0.0 mm 0.00 in0.0 mm 0.00 in0.0 mm
02:51 AM 77.5°F25.3°C 72.7°F22.6°C 85% 1.8 mph WSW2.9 kmh WSW 3.1 mph5.0 kmh 29.80 in1009.1 mb 0.00 in0.0 mm 0.00 in0.0 mm 0.00 in0.0 mm
02:50 AM 77.5°F25.3°C 72.3°F22.4°C 84% 2.0 mph WSW3.2 kmh WSW 2.0 mph3.2 kmh 29.81 in1009.5 mb 0.00 in0.0 mm 0.00 in0.0 mm 0.00 in0.0 mm
02:49 AM 77.5°F25.3°C 72.3°F22.4°C 84% 2.5 mph WSW4.0 kmh WSW 3.1 mph5.0 kmh 29.80 in1009.1 mb 0.00 in0.0 mm 0.00 in0.0 mm 0.00 in0.0 mm
02:48 AM 77.5°F25.3°C 72.3°F22.4°C 84% 2.2 mph WSW3.5 kmh WSW 3.1 mph5.0 kmh 29.80 in1009.1 mb 0.00 in0.0 mm 0.00 in0.0 mm 0.00 in0.0 mm
02:47 AM 77.5°F25.3°C 72.0°F22.2°C 83% 2.0 mph WSW3.2 kmh WSW 3.1 mph5.0 kmh 29.80 in1009.1 mb 0.00 in0.0 mm 0.00 in0.0 mm 0.00 in0.0 mm
02:46 AM 77.7°F25.4°C 72.1°F22.3°C 83% 2.0 mph WSW3.2 kmh WSW 3.1 mph5.0 kmh 29.81 in1009.5 mb 0.00 in0.0 mm 0.00 in0.0 mm 0.00 in0.0 mm
02:45 AM 77.7°F25.4°C 72.1°F22.3°C 83% 1.8 mph WSW2.9 kmh WSW 3.1 mph5.0 kmh 29.81 in1009.5 mb 0.00 in0.0 mm 0.00 in0.0 mm 0.00 in0.0 mm
02:44 AM 77.7°F25.4°C 72.1°F22.3°C 83% 1.8 mph WSW2.9 kmh WSW 3.1 mph5.0 kmh 29.81 in1009.5 mb 0.00 in0.0 mm 0.00 in0.0 mm 0.00 in0.0 mm
02:43 AM 77.7°F25.4°C 72.1°F22.3°C 83% 2.0 mph WSW3.2 kmh WSW 3.1 mph5.0 kmh 29.81 in1009.5 mb 0.00 in0.0 mm 0.00 in0.0 mm 0.00 in0.0 mm
02:42 AM 77.9°F25.5°C 72.0°F22.2°C 82% 2.2 mph WSW3.5 kmh WSW 3.1 mph5.0 kmh 29.81 in1009.5 mb 0.00 in0.0 mm 0.00 in0.0 mm 0.00 in0.0 mm
02:41 AM 78.1°F25.6°C 72.1°F22.3°C 82% 2.2 mph SW3.5 kmh SW 3.1 mph5.0 kmh 29.81 in1009.5 mb 0.00 in0.0 mm 0.00 in0.0 mm 0.00 in0.0 mm
02:40 AM 78.1°F25.6°C 72.1°F22.3°C 82% 2.2 mph W3.5 kmh W 4.3 mph6.9 kmh 29.81 in1009.5 mb 0.00 in0.0 mm 0.00 in0.0 mm 0.00 in0.0 mm
02:39 AM 78.1°F25.6°C 71.8°F22.1°C 81% 2.0 mph W3.2 kmh W 3.1 mph5.0 kmh 29.81 in1009.5 mb 0.00 in0.0 mm 0.00 in0.0 mm 0.00 in0.0 mm
02:38 AM 78.1°F25.6°C 71.8°F22.1°C 81% 1.6 mph W2.6 kmh W 3.1 mph5.0 kmh 29.81 in1009.5 mb 0.00 in0.0 mm 0.00 in0.0 mm 0.00 in0.0 mm
02:37 AM 78.3°F25.7°C 72.0°F22.2°C 81% 2.0 mph W3.2 kmh W 3.1 mph5.0 kmh 29.81 in1009.5 mb 0.00 in0.0 mm 0.00 in0.0 mm 0.00 in0.0 mm
02:36 AM 78.3°F25.7°C 72.0°F22.2°C 81% 2.2 mph W3.5 kmh W 3.1 mph5.0 kmh 29.81 in1009.5 mb 0.00 in0.0 mm 0.00 in0.0 mm 0.00 in0.0 mm
02:35 AM 78.4°F25.8°C 71.8°F22.1°C 80% 1.8 mph W2.9 kmh W 2.0 mph3.2 kmh 29.81 in1009.5 mb 0.00 in0.0 mm 0.00 in0.0 mm 0.00 in0.0 mm
02:34 AM 78.4°F25.8°C 71.8°F22.1°C 80% 1.8 mph W2.9 kmh W 3.1 mph5.0 kmh 29.81 in1009.5 mb 0.00 in0.0 mm 0.00 in0.0 mm 0.00 in0.0 mm
02:33 AM 78.4°F25.8°C 71.8°F22.1°C 80% 1.8 mph W2.9 kmh W 3.1 mph5.0 kmh 29.81 in1009.5 mb 0.00 in0.0 mm 0.00 in0.0 mm 0.00 in0.0 mm
02:32 AM 78.6°F25.9°C 72.3°F22.4°C 81% 2.0 mph W3.2 kmh W 3.1 mph5.0 kmh 29.81 in1009.5 mb 0.00 in0.0 mm 0.00 in0.0 mm 0.00 in0.0 mm
02:31 AM 78.8°F26.0°C 72.1°F22.3°C 80% 2.2 mph W3.5 kmh W 3.1 mph5.0 kmh 29.80 in1009.1 mb 0.00 in0.0 mm 0.00 in0.0 mm 0.00 in0.0 mm
02:30 AM 79.0°F26.1°C 72.3°F22.4°C 80% 1.8 mph W2.9 kmh W 3.1 mph5.0 kmh 29.80 in1009.1 mb 0.00 in0.0 mm 0.00 in0.0 mm 0.00 in0.0 mm
02:29 AM 79.0°F26.1°C 72.0°F22.2°C 79% 1.8 mph WSW2.9 kmh WSW 2.0 mph3.2 kmh 29.80 in1009.1 mb 0.00 in0.0 mm 0.00 in0.0 mm 0.00 in0.0 mm
02:28 AM 79.2°F26.2°C 72.1°F22.3°C 79% 2.0 mph WSW3.2 kmh WSW 3.1 mph5.0 kmh 29.80 in1009.1 mb 0.00 in0.0 mm 0.00 in0.0 mm 0.00 in0.0 mm
02:27 AM 79.3°F26.3°C 72.3°F22.4°C 79% 2.5 mph WSW4.0 kmh WSW 5.4 mph8.7 kmh 29.80 in1009.1 mb 0.00 in0.0 mm 0.00 in0.0 mm 0.00 in0.0 mm
02:26 AM 79.5°F26.4°C 72.5°F22.5°C 79% 2.2 mph WSW3.5 kmh WSW 5.4 mph8.7 kmh 29.80 in1009.1 mb 0.00 in0.0 mm 0.00 in0.0 mm 0.00 in0.0 mm
02:25 AM 79.7°F26.5°C 72.7°F22.6°C 79% 1.3 mph W2.1 kmh W 4.3 mph6.9 kmh 29.80 in1009.1 mb 0.00 in0.0 mm 0.00 in0.0 mm 0.00 in0.0 mm
02:24 AM 79.9°F26.6°C 72.3°F22.4°C 78% 2.5 mph WSW4.0 kmh WSW 4.3 mph6.9 kmh 29.80 in1009.1 mb 0.00 in0.0 mm 0.00 in0.0 mm 0.00 in0.0 mm
02:23 AM 80.1°F26.7°C 72.5°F22.5°C 78% 3.6 mph WSW5.8 kmh WSW 6.3 mph10.1 kmh 29.80 in1009.1 mb 0.00 in0.0 mm 0.00 in0.0 mm 0.00 in0.0 mm
02:22 AM 80.4°F26.9°C 72.5°F22.5°C 77% 4.9 mph W7.9 kmh W 7.4 mph11.9 kmh 29.80 in1009.1 mb 0.00 in0.0 mm 0.00 in0.0 mm 0.00 in0.0 mm
02:21 AM 80.6°F27.0°C 72.7°F22.6°C 77% 4.5 mph SW7.2 kmh SW 11.6 mph18.7 kmh 29.80 in1009.1 mb 0.00 in0.0 mm 0.00 in0.0 mm 0.00 in0.0 mm
02:20 AM 81.0°F27.2°C 73.0°F22.8°C 77% 3.1 mph SW5.0 kmh SW 7.4 mph11.9 kmh 29.80 in1009.1 mb 0.00 in0.0 mm 0.00 in0.0 mm 0.00 in0.0 mm
02:19 AM 81.0°F27.2°C 72.7°F22.6°C 76% 3.8 mph WSW6.1 kmh WSW 5.4 mph8.7 kmh 29.81 in1009.5 mb 0.00 in0.0 mm 0.00 in0.0 mm 0.00 in0.0 mm
02:18 AM 81.1°F27.3°C 72.5°F22.5°C 75% 4.9 mph WSW7.9 kmh WSW 7.4 mph11.9 kmh 29.80 in1009.1 mb 0.00 in0.0 mm 0.00 in0.0 mm 0.00 in0.0 mm
02:17 AM 81.1°F27.3°C 72.1°F22.3°C 74% 4.3 mph WSW6.9 kmh WSW 8.5 mph13.7 kmh 29.80 in1009.1 mb 0.00 in0.0 mm 0.00 in0.0 mm 0.00 in0.0 mm
02:16 AM 81.1°F27.3°C 72.1°F22.3°C 74% 3.4 mph WSW5.5 kmh WSW 6.3 mph10.1 kmh 29.80 in1009.1 mb 0.00 in0.0 mm 0.00 in0.0 mm 0.00 in0.0 mm
02:15 AM 81.1°F27.3°C 72.1°F22.3°C 74% 4.3 mph WSW6.9 kmh WSW 7.4 mph11.9 kmh 29.81 in1009.5 mb 0.00 in0.0 mm 0.00 in0.0 mm 0.00 in0.0 mm
02:14 AM 81.1°F27.3°C 72.1°F22.3°C 74% 4.5 mph WNW7.2 kmh WNW 7.4 mph11.9 kmh 29.82 in1009.8 mb 0.00 in0.0 mm 0.00 in0.0 mm 0.00 in0.0 mm
02:12 AM 81.1°F27.3°C 72.1°F22.3°C 74% 3.8 mph WSW6.1 kmh WSW 5.4 mph8.7 kmh 29.81 in1009.5 mb 0.00 in0.0 mm 0.00 in0.0 mm 0.00 in0.0 mm
02:11 AM 81.1°F27.3°C 72.1°F22.3°C 74% 3.6 mph W5.8 kmh W 5.4 mph8.7 kmh 29.82 in1009.8 mb 0.00 in0.0 mm 0.00 in0.0 mm 0.00 in0.0 mm
02:10 AM 81.1°F27.3°C 72.1°F22.3°C 74% 3.4 mph WSW5.5 kmh WSW 6.3 mph10.1 kmh 29.82 in1009.8 mb 0.00 in0.0 mm 0.00 in0.0 mm 0.00 in0.0 mm
02:09 AM 81.0°F27.2°C 72.0°F22.2°C 74% 3.1 mph WSW5.0 kmh WSW 5.4 mph8.7 kmh 29.82 in1009.8 mb 0.00 in0.0 mm 0.00 in0.0 mm 0.00 in0.0 mm
02:08 AM 81.0°F27.2°C 72.0°F22.2°C 74% 2.9 mph WSW4.7 kmh WSW 4.3 mph6.9 kmh 29.82 in1009.8 mb 0.00 in0.0 mm 0.00 in0.0 mm 0.00 in0.0 mm
02:07 AM 81.0°F27.2°C 72.0°F22.2°C 74% 3.4 mph SW5.5 kmh SW 4.3 mph6.9 kmh 29.81 in1009.5 mb 0.00 in0.0 mm 0.00 in0.0 mm 0.00 in0.0 mm
02:06 AM 81.0°F27.2°C 72.0°F22.2°C 74% 3.6 mph WSW5.8 kmh WSW 6.3 mph10.1 kmh 29.81 in1009.5 mb 0.00 in0.0 mm 0.00 in0.0 mm 0.00 in0.0 mm
02:05 AM 80.8°F27.1°C 71.8°F22.1°C 74% 3.4 mph WNW5.5 kmh WNW 4.3 mph6.9 kmh 29.82 in1009.8 mb 0.00 in0.0 mm 0.00 in0.0 mm 0.00 in0.0 mm
02:04 AM 80.8°F27.1°C 71.8°F22.1°C 74% 3.8 mph W6.1 kmh W 5.4 mph8.7 kmh 29.82 in1009.8 mb 0.00 in0.0 mm 0.00 in0.0 mm 0.00 in0.0 mm
02:03 AM 80.6°F27.0°C 72.0°F22.2°C 75% 3.8 mph W6.1 kmh W 5.4 mph8.7 kmh 29.81 in1009.5 mb 0.00 in0.0 mm 0.00 in0.0 mm 0.00 in0.0 mm
02:02 AM 80.4°F26.9°C 71.8°F22.1°C 75% 3.6 mph WSW5.8 kmh WSW 5.4 mph8.7 kmh 29.81 in1009.5 mb 0.00 in0.0 mm 0.00 in0.0 mm 0.00 in0.0 mm
02:01 AM 80.4°F26.9°C 72.1°F22.3°C 76% 2.7 mph W4.3 kmh W 3.1 mph5.0 kmh 29.81 in1009.5 mb 0.00 in0.0 mm 0.00 in0.0 mm 0.00 in0.0 mm
02:00 AM 80.4°F26.9°C 72.1°F22.3°C 76% 2.5 mph W4.0 kmh W 3.1 mph5.0 kmh 29.81 in1009.5 mb 0.00 in0.0 mm 0.00 in0.0 mm 0.00 in0.0 mm
01:59 AM 80.2°F26.8°C 72.0°F22.2°C 76% 2.5 mph W4.0 kmh W 3.1 mph5.0 kmh 29.80 in1009.1 mb 0.00 in0.0 mm 0.00 in0.0 mm 0.00 in0.0 mm
01:58 AM 80.2°F26.8°C 72.3°F22.4°C 77% 2.7 mph WSW4.3 kmh WSW 3.1 mph5.0 kmh 29.80 in1009.1 mb 0.00 in0.0 mm 0.00 in0.0 mm 0.00 in0.0 mm
01:57 AM 80.2°F26.8°C 72.3°F22.4°C 77% 2.5 mph WSW4.0 kmh WSW 3.1 mph5.0 kmh 29.80 in1009.1 mb 0.00 in0.0 mm 0.00 in0.0 mm 0.00 in0.0 mm
01:56 AM 80.2°F26.8°C 72.3°F22.4°C 77% 2.2 mph W3.5 kmh W 4.3 mph6.9 kmh 29.80 in1009.1 mb 0.00 in0.0 mm 0.00 in0.0 mm 0.00 in0.0 mm
01:55 AM 80.2°F26.8°C 72.3°F22.4°C 77% 1.8 mph W2.9 kmh W 3.1 mph5.0 kmh 29.80 in1009.1 mb 0.00 in0.0 mm 0.00 in0.0 mm 0.00 in0.0 mm
01:54 AM 80.1°F26.7°C 72.1°F22.3°C 77% 2.5 mph WSW4.0 kmh WSW 4.3 mph6.9 kmh 29.80 in1009.1 mb 0.00 in0.0 mm 0.00 in0.0 mm 0.00 in0.0 mm
01:53 AM 80.1°F26.7°C 72.1°F22.3°C 77% 3.1 mph WSW5.0 kmh WSW 4.3 mph6.9 kmh 29.80 in1009.1 mb 0.00 in0.0 mm 0.00 in0.0 mm 0.00 in0.0 mm
01:52 AM 80.1°F26.7°C 72.5°F22.5°C 78% 2.9 mph W4.7 kmh W 5.4 mph8.7 kmh 29.80 in1009.1 mb 0.00 in0.0 mm 0.00 in0.0 mm 0.00 in0.0 mm
01:51 AM 80.1°F26.7°C 72.5°F22.5°C 78% 2.2 mph WSW3.5 kmh WSW 3.1 mph5.0 kmh 29.80 in1009.1 mb 0.00 in0.0 mm 0.00 in0.0 mm 0.00 in0.0 mm
01:50 AM 80.1°F26.7°C 72.5°F22.5°C 78% 2.0 mph SW3.2 kmh SW 3.1 mph5.0 kmh 29.80 in1009.1 mb 0.00 in0.0 mm 0.00 in0.0 mm 0.00 in0.0 mm
01:49 AM 80.1°F26.7°C 72.5°F22.5°C 78% 1.6 mph W2.6 kmh W 3.1 mph5.0 kmh 29.80 in1009.1 mb 0.00 in0.0 mm 0.00 in0.0 mm 0.00 in0.0 mm
01:48 AM 80.1°F26.7°C 72.5°F22.5°C 78% 1.8 mph WSW2.9 kmh WSW 4.3 mph6.9 kmh 29.80 in1009.1 mb 0.00 in0.0 mm 0.00 in0.0 mm 0.00 in0.0 mm
01:47 AM 80.1°F26.7°C 72.5°F22.5°C 78% 1.8 mph WSW2.9 kmh WSW 4.3 mph6.9 kmh 29.80 in1009.1 mb 0.00 in0.0 mm 0.00 in0.0 mm 0.00 in0.0 mm
01:46 AM 80.2°F26.8°C 72.7°F22.6°C 78% 1.8 mph W2.9 kmh W 3.1 mph5.0 kmh 29.80 in1009.1 mb 0.00 in0.0 mm 0.00 in0.0 mm 0.00 in0.0 mm
01:45 AM 80.2°F26.8°C 72.7°F22.6°C 78% 2.0 mph W3.2 kmh W 4.3 mph6.9 kmh 29.80 in1009.1 mb 0.00 in0.0 mm 0.00 in0.0 mm 0.00 in0.0 mm
01:44 AM 80.2°F26.8°C 72.7°F22.6°C 78% 2.2 mph W3.5 kmh W 3.1 mph5.0 kmh 29.80 in1009.1 mb 0.00 in0.0 mm 0.00 in0.0 mm 0.00 in0.0 mm
01:43 AM 80.2°F26.8°C 72.7°F22.6°C 78% 3.1 mph W5.0 kmh W 5.4 mph8.7 kmh 29.80 in1009.1 mb 0.00 in0.0 mm 0.00 in0.0 mm 0.00 in0.0 mm
01:42 AM 80.2°F26.8°C 72.7°F22.6°C 78% 3.6 mph WSW5.8 kmh WSW 5.4 mph8.7 kmh 29.80 in1009.1 mb 0.00 in0.0 mm 0.00 in0.0 mm 0.00 in0.0 mm
01:41 AM 80.2°F26.8°C 72.7°F22.6°C 78% 3.4 mph WSW5.5 kmh WSW 6.3 mph10.1 kmh 29.80 in1009.1 mb 0.00 in0.0 mm 0.00 in0.0 mm 0.00 in0.0 mm
01:40 AM 80.2°F26.8°C 72.7°F22.6°C 78% 3.1 mph W5.0 kmh W 7.4 mph11.9 kmh 29.80 in1009.1 mb 0.00 in0.0 mm 0.00 in0.0 mm 0.00 in0.0 mm
01:39 AM 80.2°F26.8°C 72.7°F22.6°C 78% 3.4 mph W5.5 kmh W 4.3 mph6.9 kmh 29.80 in1009.1 mb 0.00 in0.0 mm 0.00 in0.0 mm 0.00 in0.0 mm
01:38 AM 80.4°F26.9°C 72.9°F22.7°C 78% 3.1 mph W5.0 kmh W 5.4 mph8.7 kmh 29.80 in1009.1 mb 0.00 in0.0 mm 0.00 in0.0 mm 0.00 in0.0 mm
01:37 AM 80.4°F26.9°C 72.9°F22.7°C 78% 3.1 mph WSW5.0 kmh WSW 4.3 mph6.9 kmh 29.80 in1009.1 mb 0.00 in0.0 mm 0.00 in0.0 mm 0.00 in0.0 mm
01:36 AM 80.4°F26.9°C 72.9°F22.7°C 78% 3.8 mph WSW6.1 kmh WSW 5.4 mph8.7 kmh 29.80 in1009.1 mb 0.00 in0.0 mm 0.00 in0.0 mm 0.00 in0.0 mm
01:35 AM 80.6°F27.0°C 73.0°F22.8°C 78% 3.8 mph WNW6.1 kmh WNW 5.4 mph8.7 kmh 29.81 in1009.5 mb 0.00 in0.0 mm 0.00 in0.0 mm 0.00 in0.0 mm
01:34 AM 80.8°F27.1°C 73.2°F22.9°C 78% 2.9 mph W4.7 kmh W 4.3 mph6.9 kmh 29.81 in1009.5 mb 0.00 in0.0 mm 0.00 in0.0 mm 0.00 in0.0 mm
01:33 AM 80.8°F27.1°C 72.9°F22.7°C 77% 2.5 mph W4.0 kmh W 4.3 mph6.9 kmh 29.80 in1009.1 mb 0.00 in0.0 mm 0.00 in0.0 mm 0.00 in0.0 mm
01:32 AM 80.8°F27.1°C 72.9°F22.7°C 77% 2.5 mph W4.0 kmh W 4.3 mph6.9 kmh 29.81 in1009.5 mb 0.00 in0.0 mm 0.00 in0.0 mm 0.00 in0.0 mm
01:31 AM 81.0°F27.2°C 73.0°F22.8°C 77% 2.2 mph W3.5 kmh W 4.3 mph6.9 kmh 29.81 in1009.5 mb 0.00 in0.0 mm 0.00 in0.0 mm 0.00 in0.0 mm
01:30 AM 81.0°F27.2°C 73.0°F22.8°C 77% 1.8 mph WNW2.9 kmh WNW 3.1 mph5.0 kmh 29.81 in1009.5 mb 0.00 in0.0 mm 0.00 in0.0 mm 0.00 in0.0 mm
01:29 AM 81.0°F27.2°C 73.0°F22.8°C 77% 2.0 mph W3.2 kmh W 2.0 mph3.2 kmh 29.81 in1009.5 mb 0.00 in0.0 mm 0.00 in0.0 mm 0.00 in0.0 mm
01:28 AM 81.1°F27.3°C 73.2°F22.9°C 77% 2.2 mph W3.5 kmh W 3.1 mph5.0 kmh 29.81 in1009.5 mb 0.00 in0.0 mm 0.00 in0.0 mm 0.00 in0.0 mm
01:27 AM 81.1°F27.3°C 72.9°F22.7°C 76% 2.5 mph W4.0 kmh W 3.1 mph5.0 kmh 29.81 in1009.5 mb 0.00 in0.0 mm 0.00 in0.0 mm 0.00 in0.0 mm
01:26 AM 81.1°F27.3°C 72.9°F22.7°C 76% 2.5 mph W4.0 kmh W 4.3 mph6.9 kmh 29.81 in1009.5 mb 0.00 in0.0 mm 0.00 in0.0 mm 0.00 in0.0 mm
01:25 AM 81.3°F27.4°C 73.0°F22.8°C 76% 2.0 mph WSW3.2 kmh WSW 4.3 mph6.9 kmh 29.81 in1009.5 mb 0.00 in0.0 mm 0.00 in0.0 mm 0.00 in0.0 mm
01:24 AM 81.3°F27.4°C 73.0°F22.8°C 76% 1.6 mph WSW2.6 kmh WSW 3.1 mph5.0 kmh 29.80 in1009.1 mb 0.00 in0.0 mm 0.00 in0.0 mm 0.00 in0.0 mm
01:23 AM 81.3°F27.4°C 72.7°F22.6°C 75% 1.6 mph WSW2.6 kmh WSW 2.0 mph3.2 kmh 29.80 in1009.1 mb 0.00 in0.0 mm 0.00 in0.0 mm 0.00 in0.0 mm
01:22 AM 81.3°F27.4°C 72.7°F22.6°C 75% 1.1 mph WSW1.8 kmh WSW 3.1 mph5.0 kmh 29.80 in1009.1 mb 0.00 in0.0 mm 0.00 in0.0 mm 0.00 in0.0 mm
01:21 AM 81.5°F27.5°C 72.9°F22.7°C 75% 0.9 mph SW1.4 kmh SW 3.1 mph5.0 kmh 29.80 in1009.1 mb 0.00 in0.0 mm 0.00 in0.0 mm 0.00 in0.0 mm
01:20 AM 81.7°F27.6°C 73.0°F22.8°C 75% 0.7 mph SW1.1 kmh SW 2.0 mph3.2 kmh 29.80 in1009.1 mb 0.00 in0.0 mm 0.00 in0.0 mm 0.00 in0.0 mm
01:19 AM 81.7°F27.6°C 73.0°F22.8°C 75% 1.1 mph SW1.8 kmh SW 3.1 mph5.0 kmh 29.80 in1009.1 mb 0.00 in0.0 mm 0.00 in0.0 mm 0.00 in0.0 mm
01:18 AM 81.7°F27.6°C 73.0°F22.8°C 75% 1.6 mph SW2.6 kmh SW 3.1 mph5.0 kmh 29.81 in1009.5 mb 0.00 in0.0 mm 0.00 in0.0 mm 0.00 in0.0 mm
01:17 AM 81.7°F27.6°C 73.0°F22.8°C 75% 1.8 mph W2.9 kmh W 3.1 mph5.0 kmh 29.81 in1009.5 mb 0.00 in0.0 mm 0.00 in0.0 mm 0.00 in0.0 mm
01:16 AM 81.9°F27.7°C 73.2°F22.9°C 75% 1.6 mph W2.6 kmh W 4.3 mph6.9 kmh 29.81 in1009.5 mb 0.00 in0.0 mm 0.00 in0.0 mm 0.00 in0.0 mm
01:15 AM 81.9°F27.7°C 73.2°F22.9°C 75% 1.1 mph WSW1.8 kmh WSW 2.0 mph3.2 kmh 29.81 in1009.5 mb 0.00 in0.0 mm 0.00 in0.0 mm 0.00 in0.0 mm
01:14 AM 81.9°F27.7°C 73.6°F23.1°C 76% 1.1 mph WSW1.8 kmh WSW 2.0 mph3.2 kmh 29.81 in1009.5 mb 0.00 in0.0 mm 0.00 in0.0 mm 0.00 in0.0 mm
01:13 AM 81.9°F27.7°C 73.6°F23.1°C 76% 1.6 mph WSW2.6 kmh WSW 3.1 mph5.0 kmh 29.82 in1009.8 mb 0.00 in0.0 mm 0.00 in0.0 mm 0.00 in0.0 mm
01:12 AM 81.9°F27.7°C 73.6°F23.1°C 76% 1.8 mph WSW2.9 kmh WSW 3.1 mph5.0 kmh 29.81 in1009.5 mb 0.00 in0.0 mm 0.00 in0.0 mm 0.00 in0.0 mm
01:11 AM 81.9°F27.7°C 73.6°F23.1°C 76% 1.8 mph WSW2.9 kmh WSW 3.1 mph5.0 kmh 29.82 in1009.8 mb 0.00 in0.0 mm 0.00 in0.0 mm 0.00 in0.0 mm
01:10 AM 82.0°F27.8°C 74.1°F23.4°C 77% 1.8 mph WSW2.9 kmh WSW 3.1 mph5.0 kmh 29.82 in1009.8 mb 0.00 in0.0 mm 0.00 in0.0 mm 0.00 in0.0 mm
01:09 AM 82.0°F27.8°C 74.1°F23.4°C 77% 2.0 mph WSW3.2 kmh WSW 3.1 mph5.0 kmh 29.82 in1009.8 mb 0.00 in0.0 mm 0.00 in0.0 mm 0.00 in0.0 mm
01:08 AM 82.0°F27.8°C 74.1°F23.4°C 77% 1.8 mph WSW2.9 kmh WSW 4.3 mph6.9 kmh 29.82 in1009.8 mb 0.00 in0.0 mm 0.00 in0.0 mm 0.00 in0.0 mm
01:07 AM 82.0°F27.8°C 74.5°F23.6°C 78% 1.8 mph WNW2.9 kmh WNW 3.1 mph5.0 kmh 29.82 in1009.8 mb 0.00 in0.0 mm 0.00 in0.0 mm 0.00 in0.0 mm
01:06 AM 82.0°F27.8°C 74.5°F23.6°C 78% 1.6 mph WNW2.6 kmh WNW 4.3 mph6.9 kmh 29.82 in1009.8 mb 0.00 in0.0 mm 0.00 in0.0 mm 0.00 in0.0 mm
01:05 AM 82.0°F27.8°C 74.5°F23.6°C 78% 0.9 mph WSW1.4 kmh WSW 1.1 mph1.8 kmh 29.82 in1009.8 mb 0.00 in0.0 mm 0.00 in0.0 mm 0.00 in0.0 mm
01:04 AM 82.0°F27.8°C 74.5°F23.6°C 78% 1.3 mph WSW2.1 kmh WSW 2.0 mph3.2 kmh 29.83 in1010.2 mb 0.00 in0.0 mm 0.00 in0.0 mm 0.00 in0.0 mm
01:03 AM 82.0°F27.8°C 74.1°F23.4°C 77% 1.3 mph WSW2.1 kmh WSW 2.0 mph3.2 kmh 29.83 in1010.2 mb 0.00 in0.0 mm 0.00 in0.0 mm 0.00 in0.0 mm
01:02 AM 82.0°F27.8°C 74.1°F23.4°C 77% 1.1 mph WSW1.8 kmh WSW 2.0 mph3.2 kmh 29.83 in1010.2 mb 0.00 in0.0 mm 0.00 in0.0 mm 0.00 in0.0 mm
01:01 AM 82.0°F27.8°C 74.1°F23.4°C 77% 1.1 mph WSW1.8 kmh WSW 1.1 mph1.8 kmh 29.83 in1010.2 mb 0.00 in0.0 mm 0.00 in0.0 mm 0.00 in0.0 mm
01:00 AM 82.0°F27.8°C 74.1°F23.4°C 77% 1.3 mph WSW2.1 kmh WSW 2.0 mph3.2 kmh 29.83 in1010.2 mb 0.00 in0.0 mm 0.00 in0.0 mm 0.00 in0.0 mm
12:59 AM 82.0°F27.8°C 73.8°F23.2°C 76% 1.3 mph WSW2.1 kmh WSW 2.0 mph3.2 kmh 29.83 in1010.2 mb 0.00 in0.0 mm 0.00 in0.0 mm 0.00 in0.0 mm
12:58 AM 82.0°F27.8°C 73.8°F23.2°C 76% 1.3 mph WSW2.1 kmh WSW 2.0 mph3.2 kmh 29.84 in1010.5 mb 0.00 in0.0 mm 0.00 in0.0 mm 0.00 in0.0 mm
12:57 AM 82.0°F27.8°C 73.8°F23.2°C 76% 1.6 mph WSW2.6 kmh WSW 2.0 mph3.2 kmh 29.84 in1010.5 mb 0.00 in0.0 mm 0.00 in0.0 mm 0.00 in0.0 mm
12:56 AM 82.0°F27.8°C 73.8°F23.2°C 76% 1.6 mph WSW2.6 kmh WSW 2.0 mph3.2 kmh 29.83 in1010.2 mb 0.00 in0.0 mm 0.00 in0.0 mm 0.00 in0.0 mm
12:55 AM 82.0°F27.8°C 73.8°F23.2°C 76% 1.3 mph WSW2.1 kmh WSW 2.0 mph3.2 kmh 29.83 in1010.2 mb 0.00 in0.0 mm 0.00 in0.0 mm 0.00 in0.0 mm
12:54 AM 82.0°F27.8°C 73.8°F23.2°C 76% 1.6 mph WSW2.6 kmh WSW 2.0 mph3.2 kmh 29.83 in1010.2 mb 0.00 in0.0 mm 0.00 in0.0 mm 0.00 in0.0 mm
12:53 AM 82.0°F27.8°C 73.8°F23.2°C 76% 1.3 mph WSW2.1 kmh WSW 3.1 mph5.0 kmh 29.83 in1010.2 mb 0.00 in0.0 mm 0.00 in0.0 mm 0.00 in0.0 mm
12:52 AM 82.0°F27.8°C 73.8°F23.2°C 76% 1.1 mph WNW1.8 kmh WNW 2.0 mph3.2 kmh 29.83 in1010.2 mb 0.00 in0.0 mm 0.00 in0.0 mm 0.00 in0.0 mm
12:51 AM 82.0°F27.8°C 73.4°F23.0°C 75% 0.7 mph NW1.1 kmh NW 2.0 mph3.2 kmh 29.83 in1010.2 mb 0.00 in0.0 mm 0.00 in0.0 mm 0.00 in0.0 mm
12:50 AM 82.2°F27.9°C 73.6°F23.1°C 75% 0.7 mph NW1.1 kmh NW 1.1 mph1.8 kmh 29.83 in1010.2 mb 0.00 in0.0 mm 0.00 in0.0 mm 0.00 in0.0 mm
12:49 AM 82.2°F27.9°C 73.6°F23.1°C 75% 1.1 mph NW1.8 kmh NW 2.0 mph3.2 kmh 29.83 in1010.2 mb 0.00 in0.0 mm 0.00 in0.0 mm 0.00 in0.0 mm
12:48 AM 82.2°F27.9°C 73.6°F23.1°C 75% 0.9 mph NW1.4 kmh NW 2.0 mph3.2 kmh 29.83 in1010.2 mb 0.00 in0.0 mm 0.00 in0.0 mm 0.00 in0.0 mm
12:47 AM 82.2°F27.9°C 73.6°F23.1°C 75% 0.9 mph NW1.4 kmh NW 1.1 mph1.8 kmh 29.83 in1010.2 mb 0.00 in0.0 mm 0.00 in0.0 mm 0.00 in0.0 mm
12:46 AM 82.2°F27.9°C 73.6°F23.1°C 75% 0.9 mph NW1.4 kmh NW 2.0 mph3.2 kmh 29.83 in1010.2 mb 0.00 in0.0 mm 0.00 in0.0 mm 0.00 in0.0 mm
12:45 AM 82.4°F28.0°C 73.2°F22.9°C 74% 1.1 mph NW1.8 kmh NW 1.1 mph1.8 kmh 29.83 in1010.2 mb 0.00 in0.0 mm 0.00 in0.0 mm 0.00 in0.0 mm
12:44 AM 82.6°F28.1°C 73.4°F23.0°C 74% 0.4 mph NW0.6 kmh NW 1.1 mph1.8 kmh 29.83 in1010.2 mb 0.00 in0.0 mm 0.00 in0.0 mm 0.00 in0.0 mm
12:43 AM 82.6°F28.1°C 73.4°F23.0°C 74% 0.4 mph NW0.6 kmh NW 1.1 mph1.8 kmh 29.83 in1010.2 mb 0.00 in0.0 mm 0.00 in0.0 mm 0.00 in0.0 mm
12:42 AM 82.6°F28.1°C 73.4°F23.0°C 74% 0.2 mph NW0.3 kmh NW 1.1 mph1.8 kmh 29.83 in1010.2 mb 0.00 in0.0 mm 0.00 in0.0 mm 0.00 in0.0 mm
12:41 AM 82.8°F28.2°C 73.6°F23.1°C 74% Calm Calm -- 29.83 in1010.2 mb 0.00 in0.0 mm 0.00 in0.0 mm 0.00 in0.0 mm
12:40 AM 82.8°F28.2°C 73.2°F22.9°C 73% 0.2 mph NW0.3 kmh NW 1.1 mph1.8 kmh 29.83 in1010.2 mb 0.00 in0.0 mm 0.00 in0.0 mm 0.00 in0.0 mm
12:39 AM 82.8°F28.2°C 73.2°F22.9°C 73% 0.2 mph NW0.3 kmh NW 1.1 mph1.8 kmh 29.82 in1009.8 mb 0.00 in0.0 mm 0.00 in0.0 mm 0.00 in0.0 mm
12:38 AM 82.9°F28.3°C 73.4°F23.0°C 73% Calm Calm -- 29.82 in1009.8 mb 0.00 in0.0 mm 0.00 in0.0 mm 0.00 in0.0 mm
12:37 AM 82.9°F28.3°C 73.4°F23.0°C 73% 0.2 mph NW0.3 kmh NW 1.1 mph1.8 kmh 29.82 in1009.8 mb 0.00 in0.0 mm 0.00 in0.0 mm 0.00 in0.0 mm
12:36 AM 83.1°F28.4°C 73.6°F23.1°C 73% Calm Calm 1.1 mph1.8 kmh 29.82 in1009.8 mb 0.00 in0.0 mm 0.00 in0.0 mm 0.00 in0.0 mm
12:35 AM 83.1°F28.4°C 73.6°F23.1°C 73% Calm Calm -- 29.83 in1010.2 mb 0.00 in0.0 mm 0.00 in0.0 mm 0.00 in0.0 mm
12:34 AM 83.1°F28.4°C 73.6°F23.1°C 73% Calm Calm -- 29.83 in1010.2 mb 0.00 in0.0 mm 0.00 in0.0 mm 0.00 in0.0 mm
12:33 AM 83.5°F28.6°C 73.6°F23.1°C 72% Calm Calm -- 29.82 in1009.8 mb 0.00 in0.0 mm 0.00 in0.0 mm 0.00 in0.0 mm
12:32 AM 83.5°F28.6°C 73.6°F23.1°C 72% 0.4 mph NW0.6 kmh NW 1.1 mph1.8 kmh 29.82 in1009.8 mb 0.00 in0.0 mm 0.00 in0.0 mm 0.00 in0.0 mm
12:31 AM 83.5°F28.6°C 73.6°F23.1°C 72% 0.2 mph NW0.3 kmh NW 1.1 mph1.8 kmh 29.82 in1009.8 mb 0.00 in0.0 mm 0.00 in0.0 mm 0.00 in0.0 mm
12:30 AM 83.7°F28.7°C 73.6°F23.1°C 72% Calm Calm -- 29.83 in1010.2 mb 0.00 in0.0 mm 0.00 in0.0 mm 0.00 in0.0 mm
12:29 AM 83.7°F28.7°C 73.6°F23.1°C 72% Calm Calm -- 29.82 in1009.8 mb 0.00 in0.0 mm 0.00 in0.0 mm 0.00 in0.0 mm
12:28 AM 83.8°F28.8°C 73.4°F23.0°C 71% 0.4 mph NW0.6 kmh NW 1.1 mph1.8 kmh 29.82 in1009.8 mb 0.00 in0.0 mm 0.00 in0.0 mm 0.00 in0.0 mm
12:27 AM 83.8°F28.8°C 73.4°F23.0°C 71% 0.9 mph NW1.4 kmh NW 1.1 mph1.8 kmh 29.82 in1009.8 mb 0.00 in0.0 mm 0.00 in0.0 mm 0.00 in0.0 mm
12:26 AM 84.0°F28.9°C 73.6°F23.1°C 71% 1.1 mph NW1.8 kmh NW 2.0 mph3.2 kmh 29.82 in1009.8 mb 0.00 in0.0 mm 0.00 in0.0 mm 0.00 in0.0 mm
12:25 AM 84.2°F29.0°C 73.8°F23.2°C 71% 1.1 mph NW1.8 kmh NW 2.0 mph3.2 kmh 29.82 in1009.8 mb 0.00 in0.0 mm 0.00 in0.0 mm 0.00 in0.0 mm
12:24 AM 84.4°F29.1°C 73.9°F23.3°C 71% 1.1 mph NNW1.8 kmh NNW 2.0 mph3.2 kmh 29.82 in1009.8 mb 0.00 in0.0 mm 0.00 in0.0 mm 0.00 in0.0 mm
12:23 AM 84.6°F29.2°C 73.8°F23.2°C 70% 0.7 mph NNW1.1 kmh NNW 2.0 mph3.2 kmh 29.82 in1009.8 mb 0.00 in0.0 mm 0.00 in0.0 mm 0.00 in0.0 mm
12:22 AM 84.6°F29.2°C 73.8°F23.2°C 70% 0.2 mph NNW0.3 kmh NNW 1.1 mph1.8 kmh 29.82 in1009.8 mb 0.00 in0.0 mm 0.00 in0.0 mm 0.00 in0.0 mm
12:21 AM 84.7°F29.3°C 73.9°F23.3°C 70% 0.2 mph NNW0.3 kmh NNW 2.0 mph3.2 kmh 29.81 in1009.5 mb 0.00 in0.0 mm 0.00 in0.0 mm 0.00 in0.0 mm
12:20 AM 84.7°F29.3°C 73.9°F23.3°C 70% 0.2 mph NNW0.3 kmh NNW 1.1 mph1.8 kmh 29.82 in1009.8 mb 0.00 in0.0 mm 0.00 in0.0 mm 0.00 in0.0 mm
12:19 AM 84.9°F29.4°C 74.1°F23.4°C 70% 0.4 mph NNW0.6 kmh NNW 1.1 mph1.8 kmh 29.82 in1009.8 mb 0.00 in0.0 mm 0.00 in0.0 mm 0.00 in0.0 mm
12:18 AM 84.9°F29.4°C 74.1°F23.4°C 70% 1.1 mph NNW1.8 kmh NNW 2.0 mph3.2 kmh 29.82 in1009.8 mb 0.00 in0.0 mm 0.00 in0.0 mm 0.00 in0.0 mm
12:17 AM 85.1°F29.5°C 74.1°F23.4°C 70% 1.1 mph NNW1.8 kmh NNW 2.0 mph3.2 kmh 29.82 in1009.8 mb 0.00 in0.0 mm 0.00 in0.0 mm 0.00 in0.0 mm
12:16 AM 85.3°F29.6°C 73.9°F23.3°C 69% 1.1 mph NNW1.8 kmh NNW 1.1 mph1.8 kmh 29.82 in1009.8 mb 0.00 in0.0 mm 0.00 in0.0 mm 0.00 in0.0 mm
12:15 AM 85.5°F29.7°C 74.1°F23.4°C 69% 1.1 mph NNW1.8 kmh NNW 3.1 mph5.0 kmh 29.82 in1009.8 mb 0.00 in0.0 mm 0.00 in0.0 mm 0.00 in0.0 mm
12:14 AM 85.5°F29.7°C 74.1°F23.4°C 69% 0.2 mph NW0.3 kmh NW 1.1 mph1.8 kmh 29.82 in1009.8 mb 0.00 in0.0 mm 0.00 in0.0 mm 0.00 in0.0 mm
12:13 AM 85.6°F29.8°C 74.3°F23.5°C 69% Calm Calm 1.1 mph1.8 kmh 29.82 in1009.8 mb 0.00 in0.0 mm 0.00 in0.0 mm 0.00 in0.0 mm
12:12 AM 85.6°F29.8°C 74.3°F23.5°C 69% 0.2 mph NW0.3 kmh NW 1.1 mph1.8 kmh 29.82 in1009.8 mb 0.00 in0.0 mm 0.00 in0.0 mm 0.00 in0.0 mm
12:11 AM 85.6°F29.8°C 74.3°F23.5°C 69% 1.1 mph NW1.8 kmh NW 1.1 mph1.8 kmh 29.82 in1009.8 mb 0.00 in0.0 mm 0.00 in0.0 mm 0.00 in0.0 mm
12:10 AM 85.8°F29.9°C 74.5°F23.6°C 69% 1.8 mph NW2.9 kmh NW 3.1 mph5.0 kmh 29.82 in1009.8 mb 0.00 in0.0 mm 0.00 in0.0 mm 0.00 in0.0 mm
12:09 AM 85.8°F29.9°C 74.5°F23.6°C 69% 1.6 mph NW2.6 kmh NW 3.1 mph5.0 kmh 29.82 in1009.8 mb 0.00 in0.0 mm 0.00 in0.0 mm 0.00 in0.0 mm
12:08 AM 86.0°F30.0°C 75.0°F23.9°C 70% 1.8 mph NW2.9 kmh NW 3.1 mph5.0 kmh 29.82 in1009.8 mb 0.00 in0.0 mm 0.00 in0.0 mm 0.00 in0.0 mm
12:07 AM 86.0°F30.0°C 75.0°F23.9°C 70% 1.8 mph NNW2.9 kmh NNW 3.1 mph5.0 kmh 29.82 in1009.8 mb 0.00 in0.0 mm 0.00 in0.0 mm 0.00 in0.0 mm
12:06 AM 86.0°F30.0°C 75.0°F23.9°C 70% 1.1 mph N1.8 kmh N 2.0 mph3.2 kmh 29.81 in1009.5 mb 0.00 in0.0 mm 0.00 in0.0 mm 0.00 in0.0 mm
12:05 AM 86.0°F30.0°C 75.0°F23.9°C 70% 0.4 mph N0.6 kmh N 1.1 mph1.8 kmh 29.81 in1009.5 mb 0.00 in0.0 mm 0.00 in0.0 mm 0.00 in0.0 mm
12:04 AM 86.0°F30.0°C 75.0°F23.9°C 70% 0.7 mph N1.1 kmh N 1.1 mph1.8 kmh 29.80 in1009.1 mb 0.00 in0.0 mm 0.00 in0.0 mm 0.00 in0.0 mm
12:03 AM 86.0°F30.0°C 75.0°F23.9°C 70% 0.4 mph N0.6 kmh N 2.0 mph3.2 kmh 29.80 in1009.1 mb 0.00 in0.0 mm 0.00 in0.0 mm 0.00 in0.0 mm
12:02 AM 86.0°F30.0°C 75.0°F23.9°C 70% Calm Calm 1.1 mph1.8 kmh 29.80 in1009.1 mb 0.00 in0.0 mm 0.00 in0.0 mm 0.00 in0.0 mm
12:01 AM 86.0°F30.0°C 75.0°F23.9°C 70% 0.2 mph NE0.3 kmh NE 1.1 mph1.8 kmh 29.80 in1009.1 mb 0.00 in0.0 mm 0.00 in0.0 mm 0.00 in0.0 mm
12:00 AM 85.8°F29.9°C 74.8°F23.8°C 70% 0.7 mph NE1.1 kmh NE 1.1 mph1.8 kmh 29.80 in1009.1 mb 0.00 in0.0 mm 0.00 in0.0 mm 0.00 in0.0 mm